sensor_id;sensor_type;location;lat;lon;timestamp;pressure;altitude;pressure_sealevel;temperature;humidity
76050;BME280;64967;50.234;19.224;2024-01-25T00:00:10;75616.72;;;-143.90;100.00
76050;BME280;64967;50.234;19.224;2024-01-25T00:02:37;75622.94;;;-143.90;100.00
76050;BME280;64967;50.234;19.224;2024-01-25T00:05:04;75614.66;;;-143.90;100.00
76050;BME280;64967;50.234;19.224;2024-01-25T00:07:31;75614.66;;;-143.90;100.00
76050;BME280;64967;50.234;19.224;2024-01-25T00:09:58;75622.94;;;-143.90;100.00
76050;BME280;64967;50.234;19.224;2024-01-25T00:12:24;75622.94;;;-143.90;100.00
76050;BME280;64967;50.234;19.224;2024-01-25T00:14:52;75618.81;;;-143.90;100.00
76050;BME280;64967;50.234;19.224;2024-01-25T00:17:19;75618.81;;;-143.90;100.00
76050;BME280;64967;50.234;19.224;2024-01-25T00:19:45;75627.06;;;-143.90;100.00
76050;BME280;64967;50.234;19.224;2024-01-25T00:22:12;75614.66;;;-143.90;100.00
76050;BME280;64967;50.234;19.224;2024-01-25T00:24:39;75620.88;;;-143.90;100.00
76050;BME280;64967;50.234;19.224;2024-01-25T00:27:05;75618.81;;;-143.90;100.00
76050;BME280;64967;50.234;19.224;2024-01-25T00:29:33;75618.81;;;-143.90;100.00
76050;BME280;64967;50.234;19.224;2024-01-25T00:32:00;75604.34;;;-143.90;100.00
76050;BME280;64967;50.234;19.224;2024-01-25T00:34:27;75604.34;;;-143.90;100.00
76050;BME280;64967;50.234;19.224;2024-01-25T00:36:54;75604.34;;;-143.90;100.00
76050;BME280;64967;50.234;19.224;2024-01-25T00:39:21;75606.41;;;-143.90;100.00
76050;BME280;64967;50.234;19.224;2024-01-25T00:41:51;75589.84;;;-143.90;100.00
76050;BME280;64967;50.234;19.224;2024-01-25T00:44:18;75604.34;;;-143.90;100.00
76050;BME280;64967;50.234;19.224;2024-01-25T00:46:45;75620.88;;;-143.90;100.00
76050;BME280;64967;50.234;19.224;2024-01-25T00:49:14;75606.41;;;-143.90;100.00
76050;BME280;64967;50.234;19.224;2024-01-25T00:51:46;75598.13;;;-143.90;100.00
76050;BME280;64967;50.234;19.224;2024-01-25T00:54:14;75614.66;;;-143.90;100.00
76050;BME280;64967;50.234;19.224;2024-01-25T00:56:41;75602.25;;;-143.90;100.00
76050;BME280;64967;50.234;19.224;2024-01-25T00:59:08;75606.41;;;-143.90;100.00
76050;BME280;64967;50.234;19.224;2024-01-25T01:01:35;75602.25;;;-143.90;100.00
76050;BME280;64967;50.234;19.224;2024-01-25T01:04:03;75606.41;;;-143.90;100.00
76050;BME280;64967;50.234;19.224;2024-01-25T01:06:30;75604.34;;;-143.90;100.00
76050;BME280;64967;50.234;19.224;2024-01-25T01:08:57;75606.41;;;-143.90;100.00
76050;BME280;64967;50.234;19.224;2024-01-25T01:11:23;75587.78;;;-143.90;100.00
76050;BME280;64967;50.234;19.224;2024-01-25T01:13:50;75598.13;;;-143.90;100.00
76050;BME280;64967;50.234;19.224;2024-01-25T01:16:17;75608.47;;;-143.90;100.00
76050;BME280;64967;50.234;19.224;2024-01-25T01:18:46;75585.72;;;-143.90;100.00
76050;BME280;64967;50.234;19.224;2024-01-25T01:21:13;75585.72;;;-143.90;100.00
76050;BME280;64967;50.234;19.224;2024-01-25T01:23:40;75600.19;;;-143.90;100.00
76050;BME280;64967;50.234;19.224;2024-01-25T01:26:07;75600.19;;;-143.90;100.00
76050;BME280;64967;50.234;19.224;2024-01-25T01:28:35;75622.94;;;-143.90;100.00
76050;BME280;64967;50.234;19.224;2024-01-25T01:31:02;75602.25;;;-143.90;100.00
76050;BME280;64967;50.234;19.224;2024-01-25T01:33:29;75602.25;;;-143.90;100.00
76050;BME280;64967;50.234;19.224;2024-01-25T01:35:56;75608.47;;;-143.90;100.00
76050;BME280;64967;50.234;19.224;2024-01-25T01:38:23;75616.72;;;-143.90;100.00
76050;BME280;64967;50.234;19.224;2024-01-25T01:40:49;75610.53;;;-143.90;100.00
76050;BME280;64967;50.234;19.224;2024-01-25T01:43:19;75614.66;;;-143.90;100.00
76050;BME280;64967;50.234;19.224;2024-01-25T01:45:47;75627.06;;;-143.90;100.00
76050;BME280;64967;50.234;19.224;2024-01-25T01:48:14;75627.06;;;-143.90;100.00
76050;BME280;64967;50.234;19.224;2024-01-25T01:50:43;75606.41;;;-143.90;100.00
76050;BME280;64967;50.234;19.224;2024-01-25T01:53:10;75604.34;;;-143.90;100.00
76050;BME280;64967;50.234;19.224;2024-01-25T01:55:39;75612.59;;;-143.90;100.00
76050;BME280;64967;50.234;19.224;2024-01-25T01:58:07;75610.53;;;-143.90;100.00
76050;BME280;64967;50.234;19.224;2024-01-25T02:00:33;75610.53;;;-143.90;100.00
76050;BME280;64967;50.234;19.224;2024-01-25T02:03:00;75627.06;;;-143.90;100.00
76050;BME280;64967;50.234;19.224;2024-01-25T02:05:28;75622.94;;;-143.90;100.00
76050;BME280;64967;50.234;19.224;2024-01-25T02:07:55;75627.06;;;-143.90;100.00
76050;BME280;64967;50.234;19.224;2024-01-25T02:10:21;75625.00;;;-143.90;100.00
76050;BME280;64967;50.234;19.224;2024-01-25T02:12:48;75618.81;;;-143.90;100.00
76050;BME280;64967;50.234;19.224;2024-01-25T02:15:15;75618.81;;;-143.90;100.00
76050;BME280;64967;50.234;19.224;2024-01-25T02:17:42;75594.00;;;-143.90;100.00
76050;BME280;64967;50.234;19.224;2024-01-25T02:20:09;75602.25;;;-143.90;100.00
76050;BME280;64967;50.234;19.224;2024-01-25T02:22:37;75602.25;;;-143.90;100.00
76050;BME280;64967;50.234;19.224;2024-01-25T02:25:04;75602.25;;;-143.90;100.00
76050;BME280;64967;50.234;19.224;2024-01-25T02:27:31;75606.41;;;-143.90;100.00
76050;BME280;64967;50.234;19.224;2024-01-25T02:29:58;75608.47;;;-143.90;100.00
76050;BME280;64967;50.234;19.224;2024-01-25T02:32:24;75608.47;;;-143.90;100.00
76050;BME280;64967;50.234;19.224;2024-01-25T02:34:51;75598.13;;;-143.90;100.00
76050;BME280;64967;50.234;19.224;2024-01-25T02:37:18;75604.34;;;-143.90;100.00
76050;BME280;64967;50.234;19.224;2024-01-25T02:39:44;75604.34;;;-143.90;100.00
76050;BME280;64967;50.234;19.224;2024-01-25T02:42:11;75610.53;;;-143.90;100.00
76050;BME280;64967;50.234;19.224;2024-01-25T02:44:39;75610.53;;;-143.90;100.00
76050;BME280;64967;50.234;19.224;2024-01-25T02:47:06;75622.94;;;-143.90;100.00
76050;BME280;64967;50.234;19.224;2024-01-25T02:49:33;75612.59;;;-143.90;100.00
76050;BME280;64967;50.234;19.224;2024-01-25T02:51:59;75610.53;;;-143.90;100.00
76050;BME280;64967;50.234;19.224;2024-01-25T02:54:26;75622.94;;;-143.90;100.00
76050;BME280;64967;50.234;19.224;2024-01-25T02:56:53;75606.41;;;-143.90;100.00
76050;BME280;64967;50.234;19.224;2024-01-25T02:59:20;75622.94;;;-143.90;100.00
76050;BME280;64967;50.234;19.224;2024-01-25T03:01:48;75604.34;;;-143.90;100.00
76050;BME280;64967;50.234;19.224;2024-01-25T03:04:15;75608.47;;;-143.90;100.00
76050;BME280;64967;50.234;19.224;2024-01-25T03:06:42;75606.41;;;-143.90;100.00
76050;BME280;64967;50.234;19.224;2024-01-25T03:09:10;75589.84;;;-143.90;100.00
76050;BME280;64967;50.234;19.224;2024-01-25T03:11:36;75589.84;;;-143.90;100.00
76050;BME280;64967;50.234;19.224;2024-01-25T03:14:03;75589.84;;;-143.90;100.00
76050;BME280;64967;50.234;19.224;2024-01-25T03:16:30;75610.53;;;-143.90;100.00
76050;BME280;64967;50.234;19.224;2024-01-25T03:18:56;75594.00;;;-143.90;100.00
76050;BME280;64967;50.234;19.224;2024-01-25T03:21:23;75602.25;;;-143.90;100.00
76050;BME280;64967;50.234;19.224;2024-01-25T03:23:51;75594.00;;;-143.90;100.00
76050;BME280;64967;50.234;19.224;2024-01-25T03:26:17;75598.13;;;-143.90;100.00
76050;BME280;64967;50.234;19.224;2024-01-25T03:28:44;75591.94;;;-143.90;100.00
76050;BME280;64967;50.234;19.224;2024-01-25T03:31:11;75594.00;;;-143.90;99.53
76050;BME280;64967;50.234;19.224;2024-01-25T03:33:37;75606.41;;;-143.90;100.00
76050;BME280;64967;50.234;19.224;2024-01-25T03:36:05;75589.84;;;-143.90;100.00
76050;BME280;64967;50.234;19.224;2024-01-25T03:38:32;75598.13;;;-143.90;100.00
76050;BME280;64967;50.234;19.224;2024-01-25T03:40:59;75606.41;;;-143.90;98.88
76050;BME280;64967;50.234;19.224;2024-01-25T03:43:25;75600.19;;;-143.90;99.00
76050;BME280;64967;50.234;19.224;2024-01-25T03:45:58;75598.13;;;-143.90;100.00
76050;BME280;64967;50.234;19.224;2024-01-25T03:48:25;75602.25;;;-143.90;98.81
76050;BME280;64967;50.234;19.224;2024-01-25T03:50:52;75596.06;;;-143.90;98.72
76050;BME280;64967;50.234;19.224;2024-01-25T03:53:23;75591.94;;;-143.90;98.66
76050;BME280;64967;50.234;19.224;2024-01-25T03:55:49;75598.13;;;-143.90;98.78
76050;BME280;64967;50.234;19.224;2024-01-25T03:58:19;75596.06;;;-143.90;98.55
76050;BME280;64967;50.234;19.224;2024-01-25T04:00:46;75610.53;;;-143.90;98.47
76050;BME280;64967;50.234;19.224;2024-01-25T04:03:13;75604.34;;;-143.90;98.12
76050;BME280;64967;50.234;19.224;2024-01-25T04:05:40;75614.66;;;-143.90;97.03
76050;BME280;64967;50.234;19.224;2024-01-25T04:08:07;75604.34;;;-143.90;97.25
76050;BME280;64967;50.234;19.224;2024-01-25T04:10:33;75602.25;;;-143.90;97.14
76050;BME280;64967;50.234;19.224;2024-01-25T04:13:00;75606.41;;;-143.90;97.33
76050;BME280;64967;50.234;19.224;2024-01-25T04:15:27;75598.13;;;-143.90;97.48
76050;BME280;64967;50.234;19.224;2024-01-25T04:17:54;75608.47;;;-143.90;98.26
76050;BME280;64967;50.234;19.224;2024-01-25T04:20:22;75604.34;;;-143.90;98.09
76050;BME280;64967;50.234;19.224;2024-01-25T04:22:49;75604.34;;;-143.90;99.21
76050;BME280;64967;50.234;19.224;2024-01-25T04:25:16;75602.25;;;-143.90;99.00
76050;BME280;64967;50.234;19.224;2024-01-25T04:27:42;75606.41;;;-143.90;99.47
76050;BME280;64967;50.234;19.224;2024-01-25T04:30:09;75612.59;;;-143.90;100.00
76050;BME280;64967;50.234;19.224;2024-01-25T04:32:36;75600.19;;;-143.90;99.28
76050;BME280;64967;50.234;19.224;2024-01-25T04:35:03;75606.41;;;-143.90;100.00
76050;BME280;64967;50.234;19.224;2024-01-25T04:37:30;75606.41;;;-143.90;100.00
76050;BME280;64967;50.234;19.224;2024-01-25T04:39:57;75606.41;;;-143.90;100.00
76050;BME280;64967;50.234;19.224;2024-01-25T04:42:24;75629.13;;;-143.90;73.00
76050;BME280;64967;50.234;19.224;2024-01-25T04:44:50;75625.00;;;-143.90;70.51
76050;BME280;64967;50.234;19.224;2024-01-25T04:47:17;75631.22;;;-143.90;71.96
76050;BME280;64967;50.234;19.224;2024-01-25T04:49:44;75643.63;;;-143.90;72.90
76050;BME280;64967;50.234;19.224;2024-01-25T04:52:10;75658.09;;;-143.90;72.19
76050;BME280;64967;50.234;19.224;2024-01-25T04:54:37;75645.69;;;-143.90;71.64
76050;BME280;64967;50.234;19.224;2024-01-25T04:57:04;75639.47;;;-143.90;72.41
76050;BME280;64967;50.234;19.224;2024-01-25T04:59:33;75656.03;;;-143.90;73.53
76050;BME280;64967;50.234;19.224;2024-01-25T05:02:00;75656.03;;;-143.90;72.13
76050;BME280;64967;50.234;19.224;2024-01-25T05:04:28;75660.16;;;-143.90;72.59
76050;BME280;64967;50.234;19.224;2024-01-25T05:06:56;75651.88;;;-143.90;73.01
76050;BME280;64967;50.234;19.224;2024-01-25T05:09:23;75666.34;;;-143.90;73.23
76050;BME280;64967;50.234;19.224;2024-01-25T05:11:49;75664.28;;;-143.90;73.83
76050;BME280;64967;50.234;19.224;2024-01-25T05:14:17;75660.16;;;-143.90;74.34
76050;BME280;64967;50.234;19.224;2024-01-25T05:16:43;75660.16;;;-143.90;73.75
76050;BME280;64967;50.234;19.224;2024-01-25T05:19:10;75664.28;;;-143.90;74.14
76050;BME280;64967;50.234;19.224;2024-01-25T05:21:37;75670.50;;;-143.90;74.42
76050;BME280;64967;50.234;19.224;2024-01-25T05:24:03;75656.03;;;-143.90;76.04
76050;BME280;64967;50.234;19.224;2024-01-25T05:26:30;75674.63;;;-143.90;76.94
76050;BME280;64967;50.234;19.224;2024-01-25T05:28:57;75674.63;;;-143.90;77.73
76050;BME280;64967;50.234;19.224;2024-01-25T05:31:23;75664.28;;;-143.90;74.75
76050;BME280;64967;50.234;19.224;2024-01-25T05:33:50;75691.16;;;-143.90;77.50
76050;BME280;64967;50.234;19.224;2024-01-25T05:36:17;75682.91;;;-143.90;77.40
76050;BME280;64967;50.234;19.224;2024-01-25T05:38:44;75680.84;;;-143.90;76.85
76050;BME280;64967;50.234;19.224;2024-01-25T05:41:11;75676.69;;;-143.90;77.63
76050;BME280;64967;50.234;19.224;2024-01-25T05:43:38;75680.84;;;-143.90;77.97
76050;BME280;64967;50.234;19.224;2024-01-25T05:46:04;75682.91;;;-143.90;78.64
76050;BME280;64967;50.234;19.224;2024-01-25T05:48:31;75680.84;;;-143.90;77.86
76050;BME280;64967;50.234;19.224;2024-01-25T05:50:58;75684.97;;;-143.90;78.53
76050;BME280;64967;50.234;19.224;2024-01-25T05:53:24;75689.09;;;-143.90;79.66
76050;BME280;64967;50.234;19.224;2024-01-25T05:55:52;75699.44;;;-143.90;78.85
76050;BME280;64967;50.234;19.224;2024-01-25T05:58:18;75689.09;;;-143.90;78.80
76050;BME280;64967;50.234;19.224;2024-01-25T06:00:45;75684.97;;;-143.90;79.14
76050;BME280;64967;50.234;19.224;2024-01-25T06:03:12;75691.16;;;-143.90;78.74
76050;BME280;64967;50.234;19.224;2024-01-25T06:05:39;75687.03;;;-143.90;79.01
76050;BME280;64967;50.234;19.224;2024-01-25T06:08:06;75697.38;;;-143.90;80.04
76050;BME280;64967;50.234;19.224;2024-01-25T06:10:32;75689.09;;;-143.90;81.46
76050;BME280;64967;50.234;19.224;2024-01-25T06:12:59;75691.16;;;-143.90;83.14
76050;BME280;64967;50.234;19.224;2024-01-25T06:15:26;75701.50;;;-143.90;82.82
76050;BME280;64967;50.234;19.224;2024-01-25T06:17:53;75705.66;;;-143.90;84.00
76050;BME280;64967;50.234;19.224;2024-01-25T06:20:19;75709.78;;;-143.90;85.46
76050;BME280;64967;50.234;19.224;2024-01-25T06:22:46;75709.78;;;-143.90;84.63
76050;BME280;64967;50.234;19.224;2024-01-25T06:25:13;75701.50;;;-143.90;86.19
76050;BME280;64967;50.234;19.224;2024-01-25T06:27:40;75703.56;;;-143.90;84.55
76050;BME280;64967;50.234;19.224;2024-01-25T06:30:07;75713.91;;;-143.90;85.66
76050;BME280;64967;50.234;19.224;2024-01-25T06:32:34;75718.06;;;-143.90;88.51
76050;BME280;64967;50.234;19.224;2024-01-25T06:35:01;75730.47;;;-143.90;91.23
76050;BME280;64967;50.234;19.224;2024-01-25T06:37:28;75730.47;;;-143.90;91.46
76050;BME280;64967;50.234;19.224;2024-01-25T06:39:54;75734.59;;;-143.90;91.79
76050;BME280;64967;50.234;19.224;2024-01-25T06:42:21;75742.88;;;-143.90;92.60
76050;BME280;64967;50.234;19.224;2024-01-25T06:44:48;75736.66;;;-143.90;94.42
76050;BME280;64967;50.234;19.224;2024-01-25T06:47:15;75755.28;;;-143.90;97.40
76050;BME280;64967;50.234;19.224;2024-01-25T06:49:41;75767.69;;;-143.90;97.04
76050;BME280;64967;50.234;19.224;2024-01-25T06:52:08;75761.47;;;-143.90;100.00
76050;BME280;64967;50.234;19.224;2024-01-25T06:54:34;75775.94;;;-143.90;100.00
76050;BME280;64967;50.234;19.224;2024-01-25T06:57:01;75794.56;;;-143.90;100.00
76050;BME280;64967;50.234;19.224;2024-01-25T06:59:29;75792.50;;;-143.90;100.00
76050;BME280;64967;50.234;19.224;2024-01-25T07:01:56;75796.63;;;-143.90;100.00
76050;BME280;64967;50.234;19.224;2024-01-25T07:04:23;75813.16;;;-143.90;100.00
76050;BME280;64967;50.234;19.224;2024-01-25T07:06:50;75821.44;;;-143.90;100.00
76050;BME280;64967;50.234;19.224;2024-01-25T07:09:18;75821.44;;;-143.90;100.00
76050;BME280;64967;50.234;19.224;2024-01-25T07:11:45;75821.44;;;-143.90;100.00
76050;BME280;64967;50.234;19.224;2024-01-25T07:14:12;75817.31;;;-143.90;100.00
76050;BME280;64967;50.234;19.224;2024-01-25T07:16:39;75817.31;;;-143.90;100.00
76050;BME280;64967;50.234;19.224;2024-01-25T07:19:05;75817.31;;;-143.90;100.00
76050;BME280;64967;50.234;19.224;2024-01-25T07:21:32;75821.44;;;-143.90;100.00
76050;BME280;64967;50.234;19.224;2024-01-25T07:24:03;75811.09;;;-143.90;100.00
76050;BME280;64967;50.234;19.224;2024-01-25T07:26:32;75831.78;;;-143.90;100.00
76050;BME280;64967;50.234;19.224;2024-01-25T07:29:00;75840.03;;;-143.90;100.00
76050;BME280;64967;50.234;19.224;2024-01-25T07:31:27;75858.66;;;-143.90;100.00
76050;BME280;64967;50.234;19.224;2024-01-25T07:33:54;75883.47;;;-143.90;100.00
76050;BME280;64967;50.234;19.224;2024-01-25T07:36:21;75900.00;;;-143.90;100.00
76050;BME280;64967;50.234;19.224;2024-01-25T07:38:51;75916.56;;;-143.90;100.00
76050;BME280;64967;50.234;19.224;2024-01-25T07:41:17;75924.81;;;-143.90;100.00
76050;BME280;64967;50.234;19.224;2024-01-25T07:43:44;75933.09;;;-143.90;100.00
76050;BME280;64967;50.234;19.224;2024-01-25T07:46:11;75931.03;;;-143.90;100.00
76050;BME280;64967;50.234;19.224;2024-01-25T07:48:37;75933.09;;;-143.90;100.00
76050;BME280;64967;50.234;19.224;2024-01-25T07:51:10;75924.81;;;-143.90;100.00
76050;BME280;64967;50.234;19.224;2024-01-25T07:53:39;75908.28;;;-143.90;100.00
76050;BME280;64967;50.234;19.224;2024-01-25T07:56:08;75897.94;;;-143.90;100.00
76050;BME280;64967;50.234;19.224;2024-01-25T07:58:36;75891.75;;;-143.90;100.00
76050;BME280;64967;50.234;19.224;2024-01-25T08:01:04;75877.25;;;-143.90;100.00
76050;BME280;64967;50.234;19.224;2024-01-25T08:03:32;75871.06;;;-143.90;100.00
76050;BME280;64967;50.234;19.224;2024-01-25T08:06:01;75854.53;;;-143.90;100.00
76050;BME280;64967;50.234;19.224;2024-01-25T08:08:29;75844.19;;;-143.90;100.00
76050;BME280;64967;50.234;19.224;2024-01-25T08:10:56;75854.53;;;-143.90;100.00
76050;BME280;64967;50.234;19.224;2024-01-25T08:13:23;75854.53;;;-143.90;100.00
76050;BME280;64967;50.234;19.224;2024-01-25T08:15:51;75858.66;;;-143.90;100.00
76050;BME280;64967;50.234;19.224;2024-01-25T08:18:18;75879.34;;;-143.90;100.00
76050;BME280;64967;50.234;19.224;2024-01-25T08:20:45;75871.06;;;-143.90;100.00
76050;BME280;64967;50.234;19.224;2024-01-25T08:23:13;75875.19;;;-143.90;100.00
76050;BME280;64967;50.234;19.224;2024-01-25T08:25:41;75877.25;;;-143.90;100.00
76050;BME280;64967;50.234;19.224;2024-01-25T08:28:08;75883.47;;;-143.90;100.00
76050;BME280;64967;50.234;19.224;2024-01-25T08:30:35;75866.94;;;-143.90;100.00
76050;BME280;64967;50.234;19.224;2024-01-25T08:33:03;75864.84;;;-143.90;100.00
76050;BME280;64967;50.234;19.224;2024-01-25T08:35:30;75854.53;;;-143.90;100.00
76050;BME280;64967;50.234;19.224;2024-01-25T08:37:57;75848.31;;;-143.90;100.00
76050;BME280;64967;50.234;19.224;2024-01-25T08:40:24;75844.19;;;-143.90;100.00
76050;BME280;64967;50.234;19.224;2024-01-25T08:42:53;75829.72;;;-143.90;100.00
76050;BME280;64967;50.234;19.224;2024-01-25T08:45:20;75819.38;;;-143.90;100.00
76050;BME280;64967;50.234;19.224;2024-01-25T08:47:46;75809.03;;;-143.90;100.00
76050;BME280;64967;50.234;19.224;2024-01-25T08:50:15;75800.75;;;-143.90;100.00
76050;BME280;64967;50.234;19.224;2024-01-25T08:52:42;75806.97;;;-143.90;100.00
76050;BME280;64967;50.234;19.224;2024-01-25T08:55:09;75792.50;;;-143.90;100.00
76050;BME280;64967;50.234;19.224;2024-01-25T08:57:39;75771.81;;;-143.90;100.00
76050;BME280;64967;50.234;19.224;2024-01-25T09:00:08;75775.94;;;-143.90;100.00
76050;BME280;64967;50.234;19.224;2024-01-25T09:02:38;75765.59;;;-143.90;100.00
76050;BME280;64967;50.234;19.224;2024-01-25T09:05:05;75755.28;;;-143.90;100.00
76050;BME280;64967;50.234;19.224;2024-01-25T09:07:33;75767.69;;;-143.90;100.00
76050;BME280;64967;50.234;19.224;2024-01-25T09:10:00;75751.13;;;-143.90;100.00
76050;BME280;64967;50.234;19.224;2024-01-25T09:12:26;75757.34;;;-143.90;100.00
76050;BME280;64967;50.234;19.224;2024-01-25T09:14:53;75761.47;;;-143.90;100.00
76050;BME280;64967;50.234;19.224;2024-01-25T09:17:19;75763.53;;;-143.90;100.00
76050;BME280;64967;50.234;19.224;2024-01-25T09:19:49;75757.34;;;-143.90;100.00
76050;BME280;64967;50.234;19.224;2024-01-25T09:22:20;75769.75;;;-143.90;100.00
76050;BME280;64967;50.234;19.224;2024-01-25T09:24:46;75778.00;;;-143.90;100.00
76050;BME280;64967;50.234;19.224;2024-01-25T09:27:14;75788.34;;;-143.90;100.00
76050;BME280;64967;50.234;19.224;2024-01-25T09:29:42;75811.09;;;-143.90;100.00
76050;BME280;64967;50.234;19.224;2024-01-25T09:32:09;75850.38;;;-143.90;100.00
76050;BME280;64967;50.234;19.224;2024-01-25T09:34:37;75852.44;;;-143.90;100.00
76050;BME280;64967;50.234;19.224;2024-01-25T09:37:06;75864.84;;;-143.90;100.00
76050;BME280;64967;50.234;19.224;2024-01-25T09:39:34;75862.78;;;-143.90;100.00
76050;BME280;64967;50.234;19.224;2024-01-25T09:42:04;75860.72;;;-143.90;100.00
76050;BME280;64967;50.234;19.224;2024-01-25T09:44:31;75842.13;;;-143.90;100.00
76050;BME280;64967;50.234;19.224;2024-01-25T09:46:58;75833.84;;;-143.90;100.00
76050;BME280;64967;50.234;19.224;2024-01-25T09:49:25;75825.56;;;-143.90;100.00
76050;BME280;64967;50.234;19.224;2024-01-25T09:51:52;75831.78;;;-143.90;100.00
76050;BME280;64967;50.234;19.224;2024-01-25T09:54:22;75815.22;;;-143.90;100.00
76050;BME280;64967;50.234;19.224;2024-01-25T09:56:51;75811.09;;;-143.90;100.00
76050;BME280;64967;50.234;19.224;2024-01-25T09:59:17;75809.03;;;-143.90;100.00
76050;BME280;64967;50.234;19.224;2024-01-25T10:01:44;75809.03;;;-143.90;100.00
76050;BME280;64967;50.234;19.224;2024-01-25T10:04:11;75804.91;;;-143.90;100.00
76050;BME280;64967;50.234;19.224;2024-01-25T10:06:38;75792.50;;;-143.90;100.00
76050;BME280;64967;50.234;19.224;2024-01-25T10:09:05;75792.50;;;-143.90;100.00
76050;BME280;64967;50.234;19.224;2024-01-25T10:11:35;75778.00;;;-143.90;100.00
76050;BME280;64967;50.234;19.224;2024-01-25T10:14:08;75780.09;;;-143.90;100.00
76050;BME280;64967;50.234;19.224;2024-01-25T10:16:35;75780.09;;;-143.90;100.00
76050;BME280;64967;50.234;19.224;2024-01-25T10:19:06;75786.28;;;-143.90;100.00
76050;BME280;64967;50.234;19.224;2024-01-25T10:21:35;75775.94;;;-143.90;100.00
76050;BME280;64967;50.234;19.224;2024-01-25T10:24:05;75780.09;;;-143.90;100.00
76050;BME280;64967;50.234;19.224;2024-01-25T10:26:34;75786.28;;;-143.90;100.00
76050;BME280;64967;50.234;19.224;2024-01-25T10:29:01;75788.34;;;-143.90;100.00
76050;BME280;64967;50.234;19.224;2024-01-25T10:31:30;75780.09;;;-143.90;100.00
76050;BME280;64967;50.234;19.224;2024-01-25T10:33:59;75786.28;;;-143.90;100.00
76050;BME280;64967;50.234;19.224;2024-01-25T10:36:27;75788.34;;;-143.90;100.00
76050;BME280;64967;50.234;19.224;2024-01-25T10:38:54;75788.34;;;-143.90;100.00
76050;BME280;64967;50.234;19.224;2024-01-25T10:41:24;75788.34;;;-143.90;100.00
76050;BME280;64967;50.234;19.224;2024-01-25T10:43:54;75786.28;;;-143.90;100.00
76050;BME280;64967;50.234;19.224;2024-01-25T10:46:21;75778.00;;;-143.90;100.00
76050;BME280;64967;50.234;19.224;2024-01-25T10:48:48;75794.56;;;-143.90;100.00
76050;BME280;64967;50.234;19.224;2024-01-25T10:51:16;75796.63;;;-143.90;100.00
76050;BME280;64967;50.234;19.224;2024-01-25T10:53:45;75788.34;;;-143.90;100.00
76050;BME280;64967;50.234;19.224;2024-01-25T10:56:12;75784.22;;;-143.90;100.00
76050;BME280;64967;50.234;19.224;2024-01-25T10:58:41;75792.50;;;-143.90;100.00
76050;BME280;64967;50.234;19.224;2024-01-25T11:01:09;75798.69;;;-143.90;100.00
76050;BME280;64967;50.234;19.224;2024-01-25T11:03:42;75796.63;;;-143.90;100.00
76050;BME280;64967;50.234;19.224;2024-01-25T11:06:11;75813.16;;;-143.90;100.00
76050;BME280;64967;50.234;19.224;2024-01-25T11:08:40;75804.91;;;-143.90;100.00
76050;BME280;64967;50.234;19.224;2024-01-25T11:11:08;75815.22;;;-143.90;100.00
76050;BME280;64967;50.234;19.224;2024-01-25T11:13:38;75829.72;;;-143.90;100.00
76050;BME280;64967;50.234;19.224;2024-01-25T11:16:12;75833.84;;;-143.90;100.00
76050;BME280;64967;50.234;19.224;2024-01-25T11:18:54;75840.03;;;-143.90;100.00
76050;BME280;64967;50.234;19.224;2024-01-25T11:21:43;75833.84;;;-143.90;100.00
76050;BME280;64967;50.234;19.224;2024-01-25T11:24:16;75833.84;;;-143.90;100.00
76050;BME280;64967;50.234;19.224;2024-01-25T11:26:43;75829.72;;;-143.90;100.00
76050;BME280;64967;50.234;19.224;2024-01-25T11:29:15;75833.84;;;-143.90;100.00
76050;BME280;64967;50.234;19.224;2024-01-25T11:31:45;75846.25;;;-143.90;100.00
76050;BME280;64967;50.234;19.224;2024-01-25T11:34:13;75848.31;;;-143.90;100.00
76050;BME280;64967;50.234;19.224;2024-01-25T11:36:43;75850.38;;;-143.90;100.00
76050;BME280;64967;50.234;19.224;2024-01-25T11:39:11;75840.03;;;-143.90;100.00
76050;BME280;64967;50.234;19.224;2024-01-25T11:41:38;75842.13;;;-143.90;100.00
76050;BME280;64967;50.234;19.224;2024-01-25T11:44:05;75846.25;;;-143.90;100.00
76050;BME280;64967;50.234;19.224;2024-01-25T11:46:31;75848.31;;;-143.90;100.00
76050;BME280;64967;50.234;19.224;2024-01-25T11:49:03;75860.72;;;-143.90;100.00
76050;BME280;64967;50.234;19.224;2024-01-25T11:51:30;75862.78;;;-143.90;100.00
76050;BME280;64967;50.234;19.224;2024-01-25T11:53:57;75854.53;;;-143.90;100.00
76050;BME280;64967;50.234;19.224;2024-01-25T11:56:27;75869.00;;;-143.90;100.00
76050;BME280;64967;50.234;19.224;2024-01-25T11:58:54;75871.06;;;-143.90;100.00
76050;BME280;64967;50.234;19.224;2024-01-25T12:01:25;75883.47;;;-143.90;100.00
76050;BME280;64967;50.234;19.224;2024-01-25T12:03:53;75885.53;;;-143.90;100.00
76050;BME280;64967;50.234;19.224;2024-01-25T12:06:20;75887.59;;;-143.90;100.00
76050;BME280;64967;50.234;19.224;2024-01-25T12:08:48;75904.16;;;-143.90;100.00
76050;BME280;64967;50.234;19.224;2024-01-25T12:11:15;75924.81;;;-143.90;100.00
76050;BME280;64967;50.234;19.224;2024-01-25T12:13:42;75926.88;;;-143.90;100.00
76050;BME280;64967;50.234;19.224;2024-01-25T12:16:10;75908.28;;;-143.90;100.00
76050;BME280;64967;50.234;19.224;2024-01-25T12:18:40;75910.34;;;-143.90;100.00
76050;BME280;64967;50.234;19.224;2024-01-25T12:21:07;75910.34;;;-143.90;100.00
76050;BME280;64967;50.234;19.224;2024-01-25T12:23:38;75900.00;;;-143.90;100.00